C35

Reedsburg Municipal Airport

Reedsburg, Wisconsin, USA
METAR KC35 181255Z AUTO 21006KT 10SM SCT055 OVC085 24/24 A2993 RMK AO2 T02380238
Observed Flight Rules
Jun-18 @ 12:55 UTC (21 minutes ago) Visual Flight Rules
Wind Visibility Clouds
210° at 6 knots 10 miles
  • Scattered at 5,500' AGL
  • Overcast at 8,500' AGL
Temperatures Readings
Current 24°C / 75°F
Dewpoint 24°C / 75°F
Humidity 100%
Altimeter 29.93" Hg
Pressure 1014 hPa
Elevation 276
METAR KC35 181255Z AUTO 21006KT 10SM SCT055 OVC085 24/24 A2993 RMK AO2 T02380238
Observed Flight Rules
Jun-18 @ 12:55 UTC
(21 minutes ago)
VFR
Wind Visibility
210° at 6 knots 10 miles
Clouds
  • Scattered at 5,500' AGL
  • Overcast at 8,500' AGL
Temperature Dewpoint
24°C / 75°F 24°C / 75°F
Humidity Altimeter Pressure
100% 29.93" Hg 1014 hPa